sensor_id;sensor_type;location;lat;lon;timestamp;P1;durP1;ratioP1;P2;durP2;ratioP2
13868;SDS011;7004;48.206;16.402;2024-01-27T00:00:09;1.60;;;1.30;;
13868;SDS011;7004;48.206;16.402;2024-01-27T00:02:37;1.60;;;1.00;;
13868;SDS011;7004;48.206;16.402;2024-01-27T00:05:04;3.07;;;1.30;;
13868;SDS011;7004;48.206;16.402;2024-01-27T00:07:30;2.73;;;1.50;;
13868;SDS011;7004;48.206;16.402;2024-01-27T00:09:57;1.83;;;1.67;;
13868;SDS011;7004;48.206;16.402;2024-01-27T00:12:24;2.20;;;1.50;;
13868;SDS011;7004;48.206;16.402;2024-01-27T00:14:53;1.40;;;1.30;;
13868;SDS011;7004;48.206;16.402;2024-01-27T00:17:21;2.77;;;1.80;;
13868;SDS011;7004;48.206;16.402;2024-01-27T00:19:51;1.80;;;1.17;;
13868;SDS011;7004;48.206;16.402;2024-01-27T00:22:17;1.60;;;1.30;;
13868;SDS011;7004;48.206;16.402;2024-01-27T00:24:43;1.80;;;1.33;;
13868;SDS011;7004;48.206;16.402;2024-01-27T00:27:10;2.67;;;0.83;;
13868;SDS011;7004;48.206;16.402;2024-01-27T00:29:36;2.93;;;0.70;;
13868;SDS011;7004;48.206;16.402;2024-01-27T00:32:03;1.10;;;0.90;;
13868;SDS011;7004;48.206;16.402;2024-01-27T00:34:29;1.10;;;1.00;;
13868;SDS011;7004;48.206;16.402;2024-01-27T00:36:55;0.90;;;0.80;;
13868;SDS011;7004;48.206;16.402;2024-01-27T00:39:22;2.03;;;0.97;;
13868;SDS011;7004;48.206;16.402;2024-01-27T00:41:48;0.70;;;0.70;;
13868;SDS011;7004;48.206;16.402;2024-01-27T00:44:14;1.57;;;0.80;;
13868;SDS011;7004;48.206;16.402;2024-01-27T00:46:40;0.90;;;0.80;;
13868;SDS011;7004;48.206;16.402;2024-01-27T00:49:07;0.77;;;0.60;;
13868;SDS011;7004;48.206;16.402;2024-01-27T00:51:34;0.80;;;0.80;;
13868;SDS011;7004;48.206;16.402;2024-01-27T00:54:00;1.77;;;0.80;;
13868;SDS011;7004;48.206;16.402;2024-01-27T00:56:27;0.70;;;0.60;;
13868;SDS011;7004;48.206;16.402;2024-01-27T00:58:54;2.00;;;1.00;;
13868;SDS011;7004;48.206;16.402;2024-01-27T01:01:20;2.40;;;0.90;;
13868;SDS011;7004;48.206;16.402;2024-01-27T01:03:46;1.20;;;1.00;;
13868;SDS011;7004;48.206;16.402;2024-01-27T01:06:13;1.33;;;0.80;;
13868;SDS011;7004;48.206;16.402;2024-01-27T01:08:39;0.57;;;0.53;;
13868;SDS011;7004;48.206;16.402;2024-01-27T01:11:05;1.23;;;0.80;;
13868;SDS011;7004;48.206;16.402;2024-01-27T01:13:31;0.83;;;0.80;;
13868;SDS011;7004;48.206;16.402;2024-01-27T01:15:57;1.93;;;0.70;;
13868;SDS011;7004;48.206;16.402;2024-01-27T01:18:23;1.10;;;0.80;;
13868;SDS011;7004;48.206;16.402;2024-01-27T01:20:49;0.93;;;0.70;;
13868;SDS011;7004;48.206;16.402;2024-01-27T01:23:15;1.53;;;0.80;;
13868;SDS011;7004;48.206;16.402;2024-01-27T01:25:42;1.07;;;0.80;;
13868;SDS011;7004;48.206;16.402;2024-01-27T01:28:10;1.83;;;0.80;;
13868;SDS011;7004;48.206;16.402;2024-01-27T01:30:38;1.10;;;0.80;;
13868;SDS011;7004;48.206;16.402;2024-01-27T01:33:04;1.00;;;0.90;;
13868;SDS011;7004;48.206;16.402;2024-01-27T01:35:30;0.90;;;0.90;;
13868;SDS011;7004;48.206;16.402;2024-01-27T01:37:56;2.20;;;1.00;;
13868;SDS011;7004;48.206;16.402;2024-01-27T01:40:23;2.27;;;1.10;;
13868;SDS011;7004;48.206;16.402;2024-01-27T01:42:52;2.80;;;0.90;;
13868;SDS011;7004;48.206;16.402;2024-01-27T01:45:18;1.30;;;0.90;;
13868;SDS011;7004;48.206;16.402;2024-01-27T01:47:45;2.37;;;1.10;;
13868;SDS011;7004;48.206;16.402;2024-01-27T01:50:12;1.73;;;0.97;;
13868;SDS011;7004;48.206;16.402;2024-01-27T01:52:38;1.23;;;1.10;;
13868;SDS011;7004;48.206;16.402;2024-01-27T01:55:04;1.00;;;0.90;;
13868;SDS011;7004;48.206;16.402;2024-01-27T01:57:33;1.10;;;0.90;;
13868;SDS011;7004;48.206;16.402;2024-01-27T01:59:59;1.20;;;1.03;;
13868;SDS011;7004;48.206;16.402;2024-01-27T02:02:25;3.23;;;1.27;;
13868;SDS011;7004;48.206;16.402;2024-01-27T02:04:51;2.50;;;1.20;;
13868;SDS011;7004;48.206;16.402;2024-01-27T02:07:17;1.60;;;1.13;;
13868;SDS011;7004;48.206;16.402;2024-01-27T02:09:44;3.23;;;1.00;;
13868;SDS011;7004;48.206;16.402;2024-01-27T02:12:09;1.13;;;1.03;;
13868;SDS011;7004;48.206;16.402;2024-01-27T02:14:36;1.50;;;0.90;;
13868;SDS011;7004;48.206;16.402;2024-01-27T02:17:02;1.77;;;1.03;;
13868;SDS011;7004;48.206;16.402;2024-01-27T02:19:29;1.50;;;1.10;;
13868;SDS011;7004;48.206;16.402;2024-01-27T02:21:56;1.30;;;1.10;;
13868;SDS011;7004;48.206;16.402;2024-01-27T02:24:22;2.97;;;1.10;;
13868;SDS011;7004;48.206;16.402;2024-01-27T02:26:48;1.73;;;1.30;;
13868;SDS011;7004;48.206;16.402;2024-01-27T02:29:14;3.60;;;1.10;;
13868;SDS011;7004;48.206;16.402;2024-01-27T02:31:40;1.87;;;1.17;;
13868;SDS011;7004;48.206;16.402;2024-01-27T02:34:07;3.83;;;1.40;;
13868;SDS011;7004;48.206;16.402;2024-01-27T02:36:33;1.93;;;1.10;;
13868;SDS011;7004;48.206;16.402;2024-01-27T02:38:59;1.87;;;1.27;;
13868;SDS011;7004;48.206;16.402;2024-01-27T02:41:26;2.10;;;1.27;;
13868;SDS011;7004;48.206;16.402;2024-01-27T02:43:53;2.23;;;1.30;;
13868;SDS011;7004;48.206;16.402;2024-01-27T02:46:19;1.93;;;1.40;;
13868;SDS011;7004;48.206;16.402;2024-01-27T02:48:45;1.37;;;1.20;;
13868;SDS011;7004;48.206;16.402;2024-01-27T02:51:12;1.43;;;1.10;;
13868;SDS011;7004;48.206;16.402;2024-01-27T02:53:38;2.90;;;1.40;;
13868;SDS011;7004;48.206;16.402;2024-01-27T02:56:06;2.27;;;1.20;;
13868;SDS011;7004;48.206;16.402;2024-01-27T02:58:35;1.57;;;1.13;;
13868;SDS011;7004;48.206;16.402;2024-01-27T03:01:01;2.03;;;1.23;;
13868;SDS011;7004;48.206;16.402;2024-01-27T03:03:29;3.57;;;1.50;;
13868;SDS011;7004;48.206;16.402;2024-01-27T03:05:56;3.00;;;1.30;;
13868;SDS011;7004;48.206;16.402;2024-01-27T03:08:22;3.57;;;1.40;;
13868;SDS011;7004;48.206;16.402;2024-01-27T03:10:48;1.40;;;1.30;;
13868;SDS011;7004;48.206;16.402;2024-01-27T03:13:14;4.33;;;1.27;;
13868;SDS011;7004;48.206;16.402;2024-01-27T03:15:44;6.07;;;1.30;;
13868;SDS011;7004;48.206;16.402;2024-01-27T03:18:17;2.17;;;1.00;;
13868;SDS011;7004;48.206;16.402;2024-01-27T03:20:44;2.47;;;1.13;;
13868;SDS011;7004;48.206;16.402;2024-01-27T03:23:10;2.80;;;1.40;;
13868;SDS011;7004;48.206;16.402;2024-01-27T03:25:36;1.60;;;1.10;;
13868;SDS011;7004;48.206;16.402;2024-01-27T03:28:03;4.13;;;1.43;;
13868;SDS011;7004;48.206;16.402;2024-01-27T03:30:30;1.53;;;1.33;;
13868;SDS011;7004;48.206;16.402;2024-01-27T03:32:56;3.23;;;1.37;;
13868;SDS011;7004;48.206;16.402;2024-01-27T03:35:23;3.10;;;1.67;;
13868;SDS011;7004;48.206;16.402;2024-01-27T03:37:51;3.13;;;1.67;;
13868;SDS011;7004;48.206;16.402;2024-01-27T03:40:17;4.43;;;1.30;;
13868;SDS011;7004;48.206;16.402;2024-01-27T03:42:43;2.70;;;1.53;;
13868;SDS011;7004;48.206;16.402;2024-01-27T03:45:10;4.90;;;1.70;;
13868;SDS011;7004;48.206;16.402;2024-01-27T03:47:37;2.70;;;1.20;;
13868;SDS011;7004;48.206;16.402;2024-01-27T03:50:03;3.07;;;1.30;;
13868;SDS011;7004;48.206;16.402;2024-01-27T03:52:29;2.80;;;1.37;;
13868;SDS011;7004;48.206;16.402;2024-01-27T03:54:55;2.73;;;1.43;;
13868;SDS011;7004;48.206;16.402;2024-01-27T03:57:22;3.73;;;1.27;;
13868;SDS011;7004;48.206;16.402;2024-01-27T03:59:48;1.63;;;1.17;;
13868;SDS011;7004;48.206;16.402;2024-01-27T04:02:15;5.80;;;1.40;;
13868;SDS011;7004;48.206;16.402;2024-01-27T04:04:41;2.97;;;1.90;;
13868;SDS011;7004;48.206;16.402;2024-01-27T04:07:07;3.83;;;1.57;;
13868;SDS011;7004;48.206;16.402;2024-01-27T04:09:33;2.37;;;1.70;;
13868;SDS011;7004;48.206;16.402;2024-01-27T04:11:59;2.30;;;1.70;;
13868;SDS011;7004;48.206;16.402;2024-01-27T04:14:26;4.47;;;1.70;;
13868;SDS011;7004;48.206;16.402;2024-01-27T04:16:52;3.97;;;1.70;;
13868;SDS011;7004;48.206;16.402;2024-01-27T04:19:20;3.80;;;1.83;;
13868;SDS011;7004;48.206;16.402;2024-01-27T04:21:45;5.13;;;1.60;;
13868;SDS011;7004;48.206;16.402;2024-01-27T04:24:11;4.63;;;1.70;;
13868;SDS011;7004;48.206;16.402;2024-01-27T04:26:39;2.33;;;1.40;;
13868;SDS011;7004;48.206;16.402;2024-01-27T04:29:05;3.30;;;1.57;;
13868;SDS011;7004;48.206;16.402;2024-01-27T04:31:31;2.37;;;1.43;;
13868;SDS011;7004;48.206;16.402;2024-01-27T04:33:57;2.20;;;1.50;;
13868;SDS011;7004;48.206;16.402;2024-01-27T04:36:27;3.73;;;1.50;;
13868;SDS011;7004;48.206;16.402;2024-01-27T04:38:55;3.17;;;1.77;;
13868;SDS011;7004;48.206;16.402;2024-01-27T04:41:21;2.83;;;1.63;;
13868;SDS011;7004;48.206;16.402;2024-01-27T04:43:47;3.73;;;2.03;;
13868;SDS011;7004;48.206;16.402;2024-01-27T04:46:13;4.33;;;2.00;;
13868;SDS011;7004;48.206;16.402;2024-01-27T04:48:39;3.03;;;1.90;;
13868;SDS011;7004;48.206;16.402;2024-01-27T04:51:05;2.80;;;1.80;;
13868;SDS011;7004;48.206;16.402;2024-01-27T04:53:31;4.43;;;2.17;;
13868;SDS011;7004;48.206;16.402;2024-01-27T04:55:58;2.23;;;1.90;;
13868;SDS011;7004;48.206;16.402;2024-01-27T04:58:24;4.83;;;1.80;;
13868;SDS011;7004;48.206;16.402;2024-01-27T05:00:50;3.43;;;1.90;;
13868;SDS011;7004;48.206;16.402;2024-01-27T05:03:17;4.90;;;2.03;;
13868;SDS011;7004;48.206;16.402;2024-01-27T05:05:43;3.07;;;1.90;;
13868;SDS011;7004;48.206;16.402;2024-01-27T05:08:09;7.67;;;2.10;;
13868;SDS011;7004;48.206;16.402;2024-01-27T05:10:36;4.13;;;1.87;;
13868;SDS011;7004;48.206;16.402;2024-01-27T05:13:02;3.63;;;1.67;;
13868;SDS011;7004;48.206;16.402;2024-01-27T05:15:28;4.53;;;1.90;;
13868;SDS011;7004;48.206;16.402;2024-01-27T05:17:54;6.50;;;2.00;;
13868;SDS011;7004;48.206;16.402;2024-01-27T05:20:21;3.10;;;1.80;;
13868;SDS011;7004;48.206;16.402;2024-01-27T05:22:47;3.47;;;1.70;;
13868;SDS011;7004;48.206;16.402;2024-01-27T05:25:13;3.90;;;1.93;;
13868;SDS011;7004;48.206;16.402;2024-01-27T05:27:40;3.33;;;1.70;;
13868;SDS011;7004;48.206;16.402;2024-01-27T05:30:07;4.63;;;1.50;;
13868;SDS011;7004;48.206;16.402;2024-01-27T05:32:34;2.63;;;1.90;;
13868;SDS011;7004;48.206;16.402;2024-01-27T05:35:00;4.00;;;1.80;;
13868;SDS011;7004;48.206;16.402;2024-01-27T05:37:26;4.00;;;1.70;;
13868;SDS011;7004;48.206;16.402;2024-01-27T05:39:52;7.53;;;2.00;;
13868;SDS011;7004;48.206;16.402;2024-01-27T05:42:18;1.97;;;1.60;;
13868;SDS011;7004;48.206;16.402;2024-01-27T05:44:44;3.70;;;1.90;;
13868;SDS011;7004;48.206;16.402;2024-01-27T05:47:11;3.07;;;1.90;;
13868;SDS011;7004;48.206;16.402;2024-01-27T05:49:37;3.33;;;1.83;;
13868;SDS011;7004;48.206;16.402;2024-01-27T05:52:03;4.23;;;1.80;;
13868;SDS011;7004;48.206;16.402;2024-01-27T05:54:30;4.50;;;1.80;;
13868;SDS011;7004;48.206;16.402;2024-01-27T05:56:56;4.80;;;2.20;;
13868;SDS011;7004;48.206;16.402;2024-01-27T05:59:23;5.97;;;2.13;;
13868;SDS011;7004;48.206;16.402;2024-01-27T06:01:49;4.40;;;1.97;;
13868;SDS011;7004;48.206;16.402;2024-01-27T06:04:15;6.80;;;1.80;;
13868;SDS011;7004;48.206;16.402;2024-01-27T06:06:41;4.07;;;1.80;;
13868;SDS011;7004;48.206;16.402;2024-01-27T06:09:07;2.90;;;2.10;;
13868;SDS011;7004;48.206;16.402;2024-01-27T06:11:36;3.60;;;1.87;;
13868;SDS011;7004;48.206;16.402;2024-01-27T06:14:03;3.20;;;1.90;;
13868;SDS011;7004;48.206;16.402;2024-01-27T06:16:29;5.90;;;2.17;;
13868;SDS011;7004;48.206;16.402;2024-01-27T06:18:55;3.70;;;2.10;;
13868;SDS011;7004;48.206;16.402;2024-01-27T06:21:21;5.70;;;2.20;;
13868;SDS011;7004;48.206;16.402;2024-01-27T06:23:47;5.30;;;2.00;;
13868;SDS011;7004;48.206;16.402;2024-01-27T06:26:14;4.43;;;1.97;;
13868;SDS011;7004;48.206;16.402;2024-01-27T06:28:40;6.57;;;2.30;;
13868;SDS011;7004;48.206;16.402;2024-01-27T06:31:06;4.00;;;2.07;;
13868;SDS011;7004;48.206;16.402;2024-01-27T06:33:34;4.50;;;2.37;;
13868;SDS011;7004;48.206;16.402;2024-01-27T06:36:00;3.40;;;2.07;;
13868;SDS011;7004;48.206;16.402;2024-01-27T06:38:28;6.80;;;2.10;;
13868;SDS011;7004;48.206;16.402;2024-01-27T06:40:55;3.60;;;2.00;;
13868;SDS011;7004;48.206;16.402;2024-01-27T06:43:21;3.50;;;2.20;;
13868;SDS011;7004;48.206;16.402;2024-01-27T06:45:48;5.23;;;2.20;;
13868;SDS011;7004;48.206;16.402;2024-01-27T06:48:14;4.53;;;2.23;;
13868;SDS011;7004;48.206;16.402;2024-01-27T06:50:40;4.30;;;2.47;;
13868;SDS011;7004;48.206;16.402;2024-01-27T06:53:06;3.90;;;2.17;;
13868;SDS011;7004;48.206;16.402;2024-01-27T06:55:33;4.00;;;2.23;;
13868;SDS011;7004;48.206;16.402;2024-01-27T06:57:59;4.13;;;1.93;;
13868;SDS011;7004;48.206;16.402;2024-01-27T07:00:25;4.07;;;2.10;;
13868;SDS011;7004;48.206;16.402;2024-01-27T07:02:51;4.43;;;1.77;;
13868;SDS011;7004;48.206;16.402;2024-01-27T07:05:17;3.23;;;1.90;;
13868;SDS011;7004;48.206;16.402;2024-01-27T07:07:43;2.87;;;1.93;;
13868;SDS011;7004;48.206;16.402;2024-01-27T07:10:09;5.03;;;2.80;;
13868;SDS011;7004;48.206;16.402;2024-01-27T07:12:37;9.97;;;3.50;;
13868;SDS011;7004;48.206;16.402;2024-01-27T07:15:03;3.53;;;2.30;;
13868;SDS011;7004;48.206;16.402;2024-01-27T07:17:29;5.90;;;3.27;;
13868;SDS011;7004;48.206;16.402;2024-01-27T07:19:55;7.40;;;2.93;;
13868;SDS011;7004;48.206;16.402;2024-01-27T07:22:22;7.13;;;4.20;;
13868;SDS011;7004;48.206;16.402;2024-01-27T07:24:49;5.30;;;2.70;;
13868;SDS011;7004;48.206;16.402;2024-01-27T07:27:18;8.10;;;2.83;;
13868;SDS011;7004;48.206;16.402;2024-01-27T07:29:44;9.73;;;4.47;;
13868;SDS011;7004;48.206;16.402;2024-01-27T07:32:10;7.70;;;2.70;;
13868;SDS011;7004;48.206;16.402;2024-01-27T07:34:44;6.40;;;2.50;;
13868;SDS011;7004;48.206;16.402;2024-01-27T07:37:11;11.27;;;2.97;;
13868;SDS011;7004;48.206;16.402;2024-01-27T07:39:37;5.37;;;3.10;;
13868;SDS011;7004;48.206;16.402;2024-01-27T07:42:03;5.00;;;2.77;;
13868;SDS011;7004;48.206;16.402;2024-01-27T07:44:31;3.53;;;2.50;;
13868;SDS011;7004;48.206;16.402;2024-01-27T07:46:57;5.03;;;2.27;;
13868;SDS011;7004;48.206;16.402;2024-01-27T07:49:24;5.07;;;2.57;;
13868;SDS011;7004;48.206;16.402;2024-01-27T07:51:50;7.10;;;2.50;;
13868;SDS011;7004;48.206;16.402;2024-01-27T07:54:16;7.73;;;2.90;;
13868;SDS011;7004;48.206;16.402;2024-01-27T07:56:42;3.97;;;2.07;;
13868;SDS011;7004;48.206;16.402;2024-01-27T07:59:08;6.30;;;2.53;;
13868;SDS011;7004;48.206;16.402;2024-01-27T08:01:39;4.37;;;2.60;;
13868;SDS011;7004;48.206;16.402;2024-01-27T08:04:06;4.13;;;2.10;;
13868;SDS011;7004;48.206;16.402;2024-01-27T08:06:32;6.03;;;2.53;;
13868;SDS011;7004;48.206;16.402;2024-01-27T08:08:58;6.90;;;2.33;;
13868;SDS011;7004;48.206;16.402;2024-01-27T08:11:24;4.33;;;2.23;;
13868;SDS011;7004;48.206;16.402;2024-01-27T08:13:51;10.07;;;2.67;;
13868;SDS011;7004;48.206;16.402;2024-01-27T08:16:19;6.13;;;2.77;;
13868;SDS011;7004;48.206;16.402;2024-01-27T08:18:45;3.07;;;2.30;;
13868;SDS011;7004;48.206;16.402;2024-01-27T08:21:11;3.27;;;2.50;;
13868;SDS011;7004;48.206;16.402;2024-01-27T08:23:38;3.17;;;2.33;;
13868;SDS011;7004;48.206;16.402;2024-01-27T08:26:04;9.70;;;2.53;;
13868;SDS011;7004;48.206;16.402;2024-01-27T08:28:30;5.13;;;2.17;;
13868;SDS011;7004;48.206;16.402;2024-01-27T08:30:56;4.27;;;1.70;;
13868;SDS011;7004;48.206;16.402;2024-01-27T08:33:25;4.23;;;2.40;;
13868;SDS011;7004;48.206;16.402;2024-01-27T08:35:51;3.63;;;2.60;;
13868;SDS011;7004;48.206;16.402;2024-01-27T08:38:18;5.27;;;2.47;;
13868;SDS011;7004;48.206;16.402;2024-01-27T08:40:44;5.70;;;2.40;;
13868;SDS011;7004;48.206;16.402;2024-01-27T08:43:10;5.87;;;2.43;;
13868;SDS011;7004;48.206;16.402;2024-01-27T08:45:39;6.33;;;2.90;;
13868;SDS011;7004;48.206;16.402;2024-01-27T08:48:06;5.73;;;2.73;;
13868;SDS011;7004;48.206;16.402;2024-01-27T08:50:32;9.90;;;2.77;;
13868;SDS011;7004;48.206;16.402;2024-01-27T08:52:58;5.17;;;2.57;;
13868;SDS011;7004;48.206;16.402;2024-01-27T08:55:25;6.70;;;2.77;;
13868;SDS011;7004;48.206;16.402;2024-01-27T08:57:51;7.47;;;2.57;;
13868;SDS011;7004;48.206;16.402;2024-01-27T09:00:18;8.20;;;2.77;;
13868;SDS011;7004;48.206;16.402;2024-01-27T09:02:45;5.17;;;2.30;;
13868;SDS011;7004;48.206;16.402;2024-01-27T09:05:11;6.13;;;2.60;;
13868;SDS011;7004;48.206;16.402;2024-01-27T09:07:37;4.67;;;2.40;;
13868;SDS011;7004;48.206;16.402;2024-01-27T09:10:03;5.07;;;2.63;;
13868;SDS011;7004;48.206;16.402;2024-01-27T09:12:31;6.17;;;2.57;;
13868;SDS011;7004;48.206;16.402;2024-01-27T09:14:57;4.93;;;2.50;;
13868;SDS011;7004;48.206;16.402;2024-01-27T09:17:23;5.90;;;2.33;;
13868;SDS011;7004;48.206;16.402;2024-01-27T09:19:49;4.67;;;2.43;;
13868;SDS011;7004;48.206;16.402;2024-01-27T09:22:16;4.67;;;2.73;;
13868;SDS011;7004;48.206;16.402;2024-01-27T09:24:42;8.57;;;2.63;;
13868;SDS011;7004;48.206;16.402;2024-01-27T09:27:08;4.97;;;2.40;;
13868;SDS011;7004;48.206;16.402;2024-01-27T09:29:34;7.00;;;2.63;;
13868;SDS011;7004;48.206;16.402;2024-01-27T09:32:00;8.93;;;2.63;;
13868;SDS011;7004;48.206;16.402;2024-01-27T09:34:27;7.93;;;2.40;;
13868;SDS011;7004;48.206;16.402;2024-01-27T09:36:53;5.90;;;2.80;;
13868;SDS011;7004;48.206;16.402;2024-01-27T09:39:19;3.77;;;2.33;;
13868;SDS011;7004;48.206;16.402;2024-01-27T09:41:45;5.20;;;2.70;;
13868;SDS011;7004;48.206;16.402;2024-01-27T09:44:14;7.63;;;3.07;;
13868;SDS011;7004;48.206;16.402;2024-01-27T09:46:45;6.67;;;2.63;;
13868;SDS011;7004;48.206;16.402;2024-01-27T09:49:14;5.93;;;2.60;;
13868;SDS011;7004;48.206;16.402;2024-01-27T09:51:41;5.80;;;3.00;;
13868;SDS011;7004;48.206;16.402;2024-01-27T09:54:07;4.70;;;3.40;;
13868;SDS011;7004;48.206;16.402;2024-01-27T09:56:33;7.70;;;4.33;;
13868;SDS011;7004;48.206;16.402;2024-01-27T09:59:00;3.87;;;2.37;;
13868;SDS011;7004;48.206;16.402;2024-01-27T10:01:27;6.20;;;3.20;;
13868;SDS011;7004;48.206;16.402;2024-01-27T10:03:54;7.00;;;2.90;;
13868;SDS011;7004;48.206;16.402;2024-01-27T10:06:20;5.00;;;3.20;;
13868;SDS011;7004;48.206;16.402;2024-01-27T10:08:51;8.37;;;3.00;;
13868;SDS011;7004;48.206;16.402;2024-01-27T10:11:20;7.00;;;3.00;;
13868;SDS011;7004;48.206;16.402;2024-01-27T10:13:56;7.07;;;2.90;;
13868;SDS011;7004;48.206;16.402;2024-01-27T10:16:25;10.57;;;3.50;;
13868;SDS011;7004;48.206;16.402;2024-01-27T10:19:01;8.00;;;2.90;;
13868;SDS011;7004;48.206;16.402;2024-01-27T10:21:28;5.87;;;2.60;;
13868;SDS011;7004;48.206;16.402;2024-01-27T10:23:54;5.47;;;2.80;;
13868;SDS011;7004;48.206;16.402;2024-01-27T10:26:21;4.67;;;2.63;;
13868;SDS011;7004;48.206;16.402;2024-01-27T10:28:54;8.23;;;3.23;;
13868;SDS011;7004;48.206;16.402;2024-01-27T10:31:25;7.83;;;3.10;;
13868;SDS011;7004;48.206;16.402;2024-01-27T10:33:54;5.27;;;3.30;;
13868;SDS011;7004;48.206;16.402;2024-01-27T10:36:22;5.30;;;2.83;;
13868;SDS011;7004;48.206;16.402;2024-01-27T10:38:49;5.83;;;2.90;;
13868;SDS011;7004;48.206;16.402;2024-01-27T10:41:21;4.80;;;2.97;;
13868;SDS011;7004;48.206;16.402;2024-01-27T10:43:53;6.27;;;2.90;;
13868;SDS011;7004;48.206;16.402;2024-01-27T10:46:21;7.30;;;3.03;;
13868;SDS011;7004;48.206;16.402;2024-01-27T10:48:51;6.70;;;3.40;;
13868;SDS011;7004;48.206;16.402;2024-01-27T10:51:29;5.07;;;2.87;;
13868;SDS011;7004;48.206;16.402;2024-01-27T10:54:03;8.53;;;2.77;;
13868;SDS011;7004;48.206;16.402;2024-01-27T10:56:32;8.90;;;3.07;;
13868;SDS011;7004;48.206;16.402;2024-01-27T10:58:59;8.67;;;3.57;;
13868;SDS011;7004;48.206;16.402;2024-01-27T11:01:27;7.20;;;3.53;;
13868;SDS011;7004;48.206;16.402;2024-01-27T11:03:57;11.10;;;7.43;;
13868;SDS011;7004;48.206;16.402;2024-01-27T11:06:24;6.10;;;3.53;;
13868;SDS011;7004;48.206;16.402;2024-01-27T11:08:52;7.20;;;3.17;;
13868;SDS011;7004;48.206;16.402;2024-01-27T11:11:19;6.37;;;2.70;;
13868;SDS011;7004;48.206;16.402;2024-01-27T11:13:46;4.23;;;2.67;;
13868;SDS011;7004;48.206;16.402;2024-01-27T11:16:16;4.20;;;2.77;;
13868;SDS011;7004;48.206;16.402;2024-01-27T11:18:44;9.03;;;3.00;;
13868;SDS011;7004;48.206;16.402;2024-01-27T11:21:14;5.37;;;2.83;;
13868;SDS011;7004;48.206;16.402;2024-01-27T11:23:41;6.60;;;3.13;;
13868;SDS011;7004;48.206;16.402;2024-01-27T11:26:09;4.33;;;2.73;;
13868;SDS011;7004;48.206;16.402;2024-01-27T11:28:36;7.00;;;2.83;;
13868;SDS011;7004;48.206;16.402;2024-01-27T11:31:03;6.00;;;3.20;;
13868;SDS011;7004;48.206;16.402;2024-01-27T11:33:30;7.17;;;2.80;;
13868;SDS011;7004;48.206;16.402;2024-01-27T11:36:03;6.77;;;2.70;;
13868;SDS011;7004;48.206;16.402;2024-01-27T11:38:31;5.27;;;2.83;;
13868;SDS011;7004;48.206;16.402;2024-01-27T11:40:59;7.23;;;3.00;;
13868;SDS011;7004;48.206;16.402;2024-01-27T11:43:25;7.77;;;3.27;;
13868;SDS011;7004;48.206;16.402;2024-01-27T11:45:58;4.90;;;3.20;;
13868;SDS011;7004;48.206;16.402;2024-01-27T11:48:26;7.27;;;3.17;;
13868;SDS011;7004;48.206;16.402;2024-01-27T11:51:05;7.77;;;3.30;;
13868;SDS011;7004;48.206;16.402;2024-01-27T11:53:37;8.33;;;2.87;;
13868;SDS011;7004;48.206;16.402;2024-01-27T11:56:04;6.03;;;2.97;;
13868;SDS011;7004;48.206;16.402;2024-01-27T11:58:31;4.40;;;2.30;;
13868;SDS011;7004;48.206;16.402;2024-01-27T12:00:58;5.57;;;2.77;;
13868;SDS011;7004;48.206;16.402;2024-01-27T12:03:25;6.60;;;2.43;;
13868;SDS011;7004;48.206;16.402;2024-01-27T12:05:51;6.57;;;2.60;;
13868;SDS011;7004;48.206;16.402;2024-01-27T12:08:17;4.40;;;2.60;;
13868;SDS011;7004;48.206;16.402;2024-01-27T12:10:43;5.30;;;2.30;;
13868;SDS011;7004;48.206;16.402;2024-01-27T12:13:09;5.27;;;2.40;;
13868;SDS011;7004;48.206;16.402;2024-01-27T12:15:35;5.50;;;2.50;;
13868;SDS011;7004;48.206;16.402;2024-01-27T12:18:01;7.60;;;2.73;;
13868;SDS011;7004;48.206;16.402;2024-01-27T12:20:30;4.10;;;2.60;;
13868;SDS011;7004;48.206;16.402;2024-01-27T12:23:03;5.07;;;2.30;;
13868;SDS011;7004;48.206;16.402;2024-01-27T12:25:32;4.93;;;2.90;;
13868;SDS011;7004;48.206;16.402;2024-01-27T12:28:02;6.90;;;2.90;;
13868;SDS011;7004;48.206;16.402;2024-01-27T12:30:31;3.93;;;2.60;;
13868;SDS011;7004;48.206;16.402;2024-01-27T12:32:58;5.70;;;2.50;;
13868;SDS011;7004;48.206;16.402;2024-01-27T12:35:28;5.57;;;3.00;;
13868;SDS011;7004;48.206;16.402;2024-01-27T12:37:54;4.97;;;2.40;;
13868;SDS011;7004;48.206;16.402;2024-01-27T12:40:21;5.03;;;2.53;;
13868;SDS011;7004;48.206;16.402;2024-01-27T12:42:48;7.10;;;2.80;;
13868;SDS011;7004;48.206;16.402;2024-01-27T12:45:15;3.97;;;2.20;;
13868;SDS011;7004;48.206;16.402;2024-01-27T12:47:41;5.07;;;2.50;;
13868;SDS011;7004;48.206;16.402;2024-01-27T12:50:08;7.77;;;2.97;;
13868;SDS011;7004;48.206;16.402;2024-01-27T12:52:34;4.37;;;2.53;;
13868;SDS011;7004;48.206;16.402;2024-01-27T12:55:02;7.20;;;2.77;;
13868;SDS011;7004;48.206;16.402;2024-01-27T12:57:30;6.33;;;2.30;;
13868;SDS011;7004;48.206;16.402;2024-01-27T12:59:57;8.23;;;2.90;;
13868;SDS011;7004;48.206;16.402;2024-01-27T13:02:23;8.87;;;3.50;;
13868;SDS011;7004;48.206;16.402;2024-01-27T13:04:49;7.23;;;3.30;;
13868;SDS011;7004;48.206;16.402;2024-01-27T13:07:15;7.43;;;2.83;;
13868;SDS011;7004;48.206;16.402;2024-01-27T13:09:42;6.73;;;3.00;;
13868;SDS011;7004;48.206;16.402;2024-01-27T13:12:08;6.53;;;2.93;;
13868;SDS011;7004;48.206;16.402;2024-01-27T13:14:34;10.30;;;3.47;;
13868;SDS011;7004;48.206;16.402;2024-01-27T13:17:00;5.73;;;3.17;;
13868;SDS011;7004;48.206;16.402;2024-01-27T13:19:27;7.27;;;3.13;;
13868;SDS011;7004;48.206;16.402;2024-01-27T13:21:53;8.37;;;3.47;;
13868;SDS011;7004;48.206;16.402;2024-01-27T13:24:19;8.73;;;2.83;;
13868;SDS011;7004;48.206;16.402;2024-01-27T13:26:45;6.00;;;2.47;;
13868;SDS011;7004;48.206;16.402;2024-01-27T13:29:12;7.00;;;2.50;;
13868;SDS011;7004;48.206;16.402;2024-01-27T13:31:39;10.43;;;2.70;;
13868;SDS011;7004;48.206;16.402;2024-01-27T13:34:05;5.17;;;2.30;;
13868;SDS011;7004;48.206;16.402;2024-01-27T13:36:31;15.67;;;6.00;;
13868;SDS011;7004;48.206;16.402;2024-01-27T13:38:59;10.87;;;3.90;;
13868;SDS011;7004;48.206;16.402;2024-01-27T13:41:25;6.97;;;2.97;;
13868;SDS011;7004;48.206;16.402;2024-01-27T13:43:51;6.60;;;2.80;;
13868;SDS011;7004;48.206;16.402;2024-01-27T13:46:17;8.10;;;4.60;;
13868;SDS011;7004;48.206;16.402;2024-01-27T13:48:43;5.80;;;3.20;;
13868;SDS011;7004;48.206;16.402;2024-01-27T13:51:11;6.77;;;3.67;;
13868;SDS011;7004;48.206;16.402;2024-01-27T13:53:37;6.20;;;2.60;;
13868;SDS011;7004;48.206;16.402;2024-01-27T13:56:03;7.13;;;3.10;;
13868;SDS011;7004;48.206;16.402;2024-01-27T13:58:30;6.97;;;2.80;;
13868;SDS011;7004;48.206;16.402;2024-01-27T14:00:56;7.63;;;2.73;;
13868;SDS011;7004;48.206;16.402;2024-01-27T14:03:22;8.13;;;3.97;;
13868;SDS011;7004;48.206;16.402;2024-01-27T14:05:48;4.80;;;3.10;;
13868;SDS011;7004;48.206;16.402;2024-01-27T14:08:15;5.10;;;3.23;;
13868;SDS011;7004;48.206;16.402;2024-01-27T14:10:43;8.97;;;2.90;;
13868;SDS011;7004;48.206;16.402;2024-01-27T14:13:09;6.30;;;3.10;;
13868;SDS011;7004;48.206;16.402;2024-01-27T14:15:35;7.57;;;2.83;;
13868;SDS011;7004;48.206;16.402;2024-01-27T14:18:02;6.03;;;2.73;;
13868;SDS011;7004;48.206;16.402;2024-01-27T14:20:35;4.40;;;2.93;;
13868;SDS011;7004;48.206;16.402;2024-01-27T14:23:03;6.80;;;2.93;;
13868;SDS011;7004;48.206;16.402;2024-01-27T14:25:31;5.17;;;2.93;;
13868;SDS011;7004;48.206;16.402;2024-01-27T14:27:57;4.17;;;2.53;;
13868;SDS011;7004;48.206;16.402;2024-01-27T14:30:23;5.17;;;2.50;;
13868;SDS011;7004;48.206;16.402;2024-01-27T14:32:49;4.47;;;2.67;;
13868;SDS011;7004;48.206;16.402;2024-01-27T14:35:15;8.70;;;2.90;;
13868;SDS011;7004;48.206;16.402;2024-01-27T14:37:42;6.57;;;2.67;;
13868;SDS011;7004;48.206;16.402;2024-01-27T14:40:09;4.47;;;2.53;;
13868;SDS011;7004;48.206;16.402;2024-01-27T14:42:36;5.03;;;2.60;;
13868;SDS011;7004;48.206;16.402;2024-01-27T14:45:05;6.30;;;2.57;;